Observation data for Seymour on 05/27/2019      Previous  Date  Next       Current Mesonet Observations  Soil Data  Daily Summary Page  Observations in Plain Language
KSE1 270500Z 14012KT 24/18 A2986 RMK A01 T02440182  RH  072%=      5-min Rain = 0
KSE1 270505Z 14011KT 24/18 A2986 RMK A01 T02420182  RH  073%=      5-min Rain = 0
KSE1 270510Z 14010G15KT 24/18 A2986 RMK A01 T02410182  RH  074%=      5-min Rain = 0
KSE1 270515Z 13010KT 24/18 A2986 RMK A01 T02390182  RH  074%=      5-min Rain = 0
KSE1 270520Z 13009KT 24/18 A2986 RMK A01 T02390182  RH  074%=      5-min Rain = 0
KSE1 270525Z 13009KT 24/18 A2986 RMK A01 T02380182  RH  075%=      5-min Rain = 0
KSE1 270530Z 13009KT 24/18 A2986 RMK A01 T02370182  RH  075%=      5-min Rain = 0
KSE1 270535Z 13009KT 24/18 A2985 RMK A01 T02360182  RH  076%=      5-min Rain = 0
KSE1 270540Z 13009KT 24/18 A2986 RMK A01 T02360182  RH  076%=      5-min Rain = 0
KSE1 270545Z 14008KT 24/18 A2986 RMK A01 T02360182  RH  076%=      5-min Rain = 0
KSE1 270550Z 14009KT 24/18 A2985 RMK A01 T02350182  RH  076%=      5-min Rain = 0
KSE1 270555Z 14009KT 24/18 A2985 RMK A01 T02350182  RH  076%=      5-min Rain = 0
KSE1 270600Z 14009KT 24/18 A2985 RMK A01 T02350181  RH  076%=      5-min Rain = 0
KSE1 270605Z 15008KT 23/18 A2985 RMK A01 T02340181  RH  076%=      5-min Rain = 0
KSE1 270610Z 15009KT 23/18 A2985 RMK A01 T02330181  RH  076%=      5-min Rain = 0
KSE1 270615Z 15011KT 23/18 A2984 RMK A01 T02330181  RH  076%=      5-min Rain = 0
KSE1 270620Z 15010KT 23/18 A2984 RMK A01 T02340180  RH  076%=      5-min Rain = 0
KSE1 270625Z 15011KT 23/18 A2984 RMK A01 T02340180  RH  075%=      5-min Rain = 0
KSE1 270630Z 15011KT 23/18 A2984 RMK A01 T02340180  RH  075%=      5-min Rain = 0
KSE1 270635Z 15011KT 23/18 A2984 RMK A01 T02330180  RH  076%=      5-min Rain = 0
KSE1 270640Z 15010KT 23/18 A2984 RMK A01 T02320180  RH  076%=      5-min Rain = 0
KSE1 270645Z 15012KT 23/18 A2983 RMK A01 T02320179  RH  076%=      5-min Rain = 0
KSE1 270650Z 15012KT 23/18 A2983 RMK A01 T02330179  RH  076%=      5-min Rain = 0
KSE1 270655Z 15011KT 23/18 A2983 RMK A01 T02320179  RH  076%=      5-min Rain = 0
KSE1 270700Z 15011KT 23/18 A2983 RMK A01 T02310179  RH  077%=      5-min Rain = 0
KSE1 270705Z 16011KT 23/18 A2983 RMK A01 T02300179  RH  077%=      5-min Rain = 0
KSE1 270710Z 16012KT 23/18 A2983 RMK A01 T02300179  RH  077%=      5-min Rain = 0
KSE1 270715Z 16011KT 23/18 A2983 RMK A01 T02300179  RH  077%=      5-min Rain = 0
KSE1 270720Z 16011KT 23/18 A2983 RMK A01 T02290179  RH  077%=      5-min Rain = 0
KSE1 270725Z 15011KT 23/18 A2983 RMK A01 T02290179  RH  077%=      5-min Rain = 0
KSE1 270730Z 16010KT 23/18 A2983 RMK A01 T02280179  RH  078%=      5-min Rain = 0
KSE1 270735Z 15010G16KT 23/18 A2983 RMK A01 T02270179  RH  078%=      5-min Rain = 0
KSE1 270740Z 15012KT 23/18 A2983 RMK A01 T02270178  RH  078%=      5-min Rain = 0
KSE1 270745Z 15011KT 23/18 A2983 RMK A01 T02270178  RH  078%=      5-min Rain = 0
KSE1 270750Z 15012KT 23/18 A2983 RMK A01 T02260178  RH  078%=      5-min Rain = 0
KSE1 270755Z 15011KT 23/18 A2983 RMK A01 T02260178  RH  078%=      5-min Rain = 0
KSE1 270800Z 15011KT 23/18 A2982 RMK A01 T02250178  RH  078%=      5-min Rain = 0
KSE1 270805Z 15010KT 23/18 A2982 RMK A01 T02250178  RH  079%=      5-min Rain = 0
KSE1 270810Z 15011G16KT 23/18 A2982 RMK A01 T02250177  RH  078%=      5-min Rain = 0
KSE1 270815Z 15011KT 22/18 A2982 RMK A01 T02240177  RH  079%=      5-min Rain = 0
KSE1 270820Z 15011KT 22/18 A2982 RMK A01 T02230177  RH  079%=      5-min Rain = 0
KSE1 270825Z 16011G16KT 22/18 A2982 RMK A01 T02240176  RH  078%=      5-min Rain = 0
KSE1 270830Z 16010KT 22/18 A2982 RMK A01 T02230176  RH  079%=      5-min Rain = 0
KSE1 270835Z 16010KT 22/18 A2982 RMK A01 T02230176  RH  079%=      5-min Rain = 0
KSE1 270840Z 16009KT 22/18 A2982 RMK A01 T02220175  RH  079%=      5-min Rain = 0
KSE1 270845Z 16010KT 22/18 A2982 RMK A01 T02220175  RH  079%=      5-min Rain = 0
KSE1 270850Z 16010KT 22/18 A2983 RMK A01 T02220175  RH  079%=      5-min Rain = 0
KSE1 270855Z 16011G16KT 22/18 A2983 RMK A01 T02220175  RH  078%=      5-min Rain = 0
KSE1 270900Z 16010G16KT 22/18 A2982 RMK A01 T02210175  RH  079%=      5-min Rain = 0
KSE1 270905Z 15011KT 22/17 A2982 RMK A01 T02200174  RH  079%=      5-min Rain = 0
KSE1 270910Z 15011KT 22/17 A2982 RMK A01 T02190174  RH  079%=      5-min Rain = 0
KSE1 270915Z 15012KT 22/17 A2982 RMK A01 T02190173  RH  079%=      5-min Rain = 0
KSE1 270920Z 16011KT 22/17 A2982 RMK A01 T02190173  RH  079%=      5-min Rain = 0
KSE1 270925Z 18008KT 22/17 A2984 RMK A01 T02170174  RH  080%=      5-min Rain = 0
KSE1 270930Z 17009KT 22/18 A2984 RMK A01 T02170175  RH  081%=      5-min Rain = 0
KSE1 270935Z 16009KT 22/17 A2983 RMK A01 T02170174  RH  081%=      5-min Rain = 0
KSE1 270940Z 17007KT 22/18 A2984 RMK A01 T02160175  RH  081%=      5-min Rain = 0
KSE1 270945Z 17007KT 22/18 A2985 RMK A01 T02170175  RH  081%=      5-min Rain = 0
KSE1 270950Z 16007KT 22/18 A2984 RMK A01 T02170175  RH  081%=      5-min Rain = 0
KSE1 270955Z 16006KT 22/18 A2985 RMK A01 T02170175  RH  081%=      5-min Rain = 0
KSE1 271000Z 16006KT 22/18 A2985 RMK A01 T02170175  RH  081%=      5-min Rain = 0
KSE1 271005Z 17006KT 22/18 A2986 RMK A01 T02170175  RH  081%=      5-min Rain = 0
KSE1 271010Z 16007KT 22/18 A2986 RMK A01 T02180175  RH  081%=      5-min Rain = 0
KSE1 271015Z 16007KT 22/18 A2986 RMK A01 T02180175  RH  081%=      5-min Rain = 0
KSE1 271020Z 15007KT 22/18 A2986 RMK A01 T02180175  RH  081%=      5-min Rain = 0
KSE1 271025Z 15007KT 22/18 A2986 RMK A01 T02180175  RH  080%=      5-min Rain = 0
KSE1 271030Z 15008KT 22/18 A2986 RMK A01 T02190175  RH  080%=      5-min Rain = 0
KSE1 271035Z 15009KT 22/18 A2986 RMK A01 T02190175  RH  080%=      5-min Rain = 0
KSE1 271040Z 15010KT 22/18 A2986 RMK A01 T02190175  RH  080%=      5-min Rain = 0
KSE1 271045Z 15010KT 22/18 A2986 RMK A01 T02180175  RH  080%=      5-min Rain = 0
KSE1 271050Z 15010KT 22/18 A2986 RMK A01 T02180175  RH  080%=      5-min Rain = 0
KSE1 271055Z 15011KT 22/18 A2986 RMK A01 T02180175  RH  081%=      5-min Rain = 0
KSE1 271100Z 15011KT 22/18 A2986 RMK A01 T02180175  RH  081%=      5-min Rain = 0
KSE1 271105Z 15012KT 22/18 A2986 RMK A01 T02180176  RH  081%=      5-min Rain = 0
KSE1 271110Z 15012KT 22/18 A2986 RMK A01 T02190175  RH  080%=      5-min Rain = 0
KSE1 271115Z 15012G17KT 22/18 A2986 RMK A01 T02190176  RH  080%=      5-min Rain = 0
KSE1 271120Z 15011KT 22/18 A2986 RMK A01 T02200176  RH  080%=      5-min Rain = 0
KSE1 271125Z 15011G16KT 22/18 A2986 RMK A01 T02190176  RH  081%=      5-min Rain = 0
KSE1 271130Z 15012KT 22/18 A2986 RMK A01 T02200176  RH  080%=      5-min Rain = 0
KSE1 271135Z 15012G17KT 22/18 A2986 RMK A01 T02200177  RH  081%=      5-min Rain = 0
KSE1 271140Z 15012KT 22/18 A2986 RMK A01 T02200177  RH  081%=      5-min Rain = 0
KSE1 271145Z 15012KT 22/18 A2986 RMK A01 T02200177  RH  081%=      5-min Rain = 0
KSE1 271150Z 15012KT 22/18 A2987 RMK A01 T02200177  RH  081%=      5-min Rain = 0
KSE1 271155Z 15013G18KT 22/18 A2986 RMK A01 T02200177  RH  081%=      5-min Rain = 0
KSE1 271200Z 15013KT 22/18 A2986 RMK A01 T02200177  RH  081%=      5-min Rain = 0
KSE1 271205Z 15014KT 22/18 A2986 RMK A01 T02200177  RH  081%=      5-min Rain = 0
KSE1 271210Z 15015KT 22/18 A2986 RMK A01 T02210178  RH  081%=      5-min Rain = 0
KSE1 271215Z 15015KT 22/18 A2986 RMK A01 T02210178  RH  081%=      5-min Rain = 0
KSE1 271220Z 15015KT 22/18 A2986 RMK A01 T02210177  RH  080%=      5-min Rain = 0
KSE1 271225Z 15015G20KT 22/18 A2986 RMK A01 T02210177  RH  080%=      5-min Rain = 0
KSE1 271230Z 15016G22KT 22/18 A2986 RMK A01 T02210177  RH  080%=      5-min Rain = 0
KSE1 271235Z 15017G22KT 22/18 A2986 RMK A01 T02220177  RH  080%=      5-min Rain = 0
KSE1 271240Z 15016G23KT 22/18 A2986 RMK A01 T02220177  RH  079%=      5-min Rain = 0
KSE1 271245Z 15015G22KT 22/18 A2986 RMK A01 T02230177  RH  080%=      5-min Rain = 0
KSE1 271250Z 15016G22KT 22/18 A2986 RMK A01 T02230177  RH  079%=      5-min Rain = 0
KSE1 271255Z 15016KT 22/18 A2986 RMK A01 T02230177  RH  079%=      5-min Rain = 0
KSE1 271300Z 15015G21KT 22/18 A2986 RMK A01 T02230177  RH  079%=      5-min Rain = 0
KSE1 271305Z 15015G22KT 22/18 A2987 RMK A01 T02230177  RH  079%=      5-min Rain = 0
KSE1 271310Z 15015G21KT 22/18 A2987 RMK A01 T02230177  RH  079%=      5-min Rain = 0
KSE1 271315Z 15014G20KT 22/18 A2987 RMK A01 T02240177  RH  079%=      5-min Rain = 0
KSE1 271320Z 15014G20KT 22/18 A2986 RMK A01 T02240177  RH  079%=      5-min Rain = 0
KSE1 271325Z 15016G23KT 22/18 A2986 RMK A01 T02240177  RH  078%=      5-min Rain = 0
KSE1 271330Z 16015G21KT 23/18 A2986 RMK A01 T02250178  RH  079%=      5-min Rain = 0
KSE1 271335Z 15015G20KT 23/18 A2986 RMK A01 T02250178  RH  078%=      5-min Rain = 0
KSE1 271340Z 15016G21KT 23/18 A2986 RMK A01 T02260177  RH  078%=      5-min Rain = 0
KSE1 271345Z 16014G20KT 23/18 A2986 RMK A01 T02270179  RH  078%=      5-min Rain = 0
KSE1 271350Z 15015G20KT 23/18 A2986 RMK A01 T02280178  RH  078%=      5-min Rain = 0
KSE1 271355Z 15017G23KT 23/18 A2986 RMK A01 T02280178  RH  077%=      5-min Rain = 0
KSE1 271400Z 16016G22KT 23/18 A2986 RMK A01 T02290179  RH  077%=      5-min Rain = 0
KSE1 271405Z 16017G23KT 23/18 A2986 RMK A01 T02310179  RH  077%=      5-min Rain = 0
KSE1 271410Z 16016G22KT 23/18 A2986 RMK A01 T02320179  RH  076%=      5-min Rain = 0
KSE1 271415Z 16016G22KT 23/18 A2986 RMK A01 T02320180  RH  076%=      5-min Rain = 0
KSE1 271420Z 15015G23KT 23/18 A2986 RMK A01 T02340180  RH  076%=      5-min Rain = 0
KSE1 271425Z 16017G22KT 24/18 A2986 RMK A01 T02350180  RH  075%=      5-min Rain = 0
KSE1 271430Z 16016G24KT 24/18 A2986 RMK A01 T02350180  RH  075%=      5-min Rain = 0
KSE1 271435Z 16015G21KT 24/18 A2986 RMK A01 T02360180  RH  075%=      5-min Rain = 0
KSE1 271440Z 15015KT 24/18 A2986 RMK A01 T02390181  RH  074%=      5-min Rain = 0
KSE1 271445Z 16015G22KT 24/18 A2986 RMK A01 T02400181  RH  073%=      5-min Rain = 0
KSE1 271450Z 16016G22KT 24/18 A2986 RMK A01 T02410181  RH  073%=      5-min Rain = 0
KSE1 271455Z 16017G25KT 24/18 A2985 RMK A01 T02440181  RH  072%=      5-min Rain = 0
KSE1 271500Z 16019G27KT 25/18 A2985 RMK A01 T02450181  RH  071%=      5-min Rain = 0
KSE1 271505Z 16019G25KT 25/18 A2985 RMK A01 T02470180  RH  070%=      5-min Rain = 0
KSE1 271510Z 16018G24KT 25/18 A2985 RMK A01 T02480181  RH  070%=      5-min Rain = 0
KSE1 271515Z 16017G22KT 25/18 A2985 RMK A01 T02530182  RH  068%=      5-min Rain = 0
KSE1 271520Z 16019G26KT 25/18 A2985 RMK A01 T02540180  RH  067%=      5-min Rain = 0
KSE1 271525Z 17021KT 25/18 A2985 RMK A01 T02540180  RH  067%=      5-min Rain = 0
KSE1 271530Z 17018G23KT 26/18 A2985 RMK A01 T02560181  RH  067%=      5-min Rain = 0
KSE1 271535Z 17018G25KT 26/18 A2985 RMK A01 T02560180  RH  066%=      5-min Rain = 0
KSE1 271540Z 16017G25KT 26/18 A2986 RMK A01 T02590182  RH  066%=      5-min Rain = 0
KSE1 271545Z 17017G25KT 26/18 A2986 RMK A01 T02590181  RH  066%=      5-min Rain = 0
KSE1 271550Z 17016G22KT 26/18 A2986 RMK A01 T02620184  RH  065%=      5-min Rain = 0
KSE1 271555Z 17016G24KT 26/18 A2986 RMK A01 T02640184  RH  065%=      5-min Rain = 0
KSE1 271600Z 17015G22KT 27/18 A2986 RMK A01 T02650184  RH  064%=      5-min Rain = 0
KSE1 271605Z 17018G24KT 26/18 A2986 RMK A01 T02640183  RH  064%=      5-min Rain = 0
KSE1 271610Z 18015G22KT 27/18 A2986 RMK A01 T02660184  RH  064%=      5-min Rain = 0
KSE1 271615Z 19015G21KT 27/19 A2986 RMK A01 T02670185  RH  064%=      5-min Rain = 0
KSE1 271620Z 18015G21KT 27/19 A2986 RMK A01 T02680185  RH  064%=      5-min Rain = 0
KSE1 271625Z 17016KT 27/19 A2986 RMK A01 T02700186  RH  063%=      5-min Rain = 0
KSE1 271630Z 18015G23KT 27/19 A2986 RMK A01 T02700185  RH  063%=      5-min Rain = 0
KSE1 271635Z 18013G18KT 27/18 A2986 RMK A01 T02680184  RH  063%=      5-min Rain = 0
KSE1 271640Z 17013G18KT 27/19 A2986 RMK A01 T02710186  RH  063%=      5-min Rain = 0
KSE1 271645Z 18013G18KT 27/19 A2985 RMK A01 T02690187  RH  064%=      5-min Rain = 0
KSE1 271650Z 18013G20KT 27/19 A2985 RMK A01 T02720187  RH  063%=      5-min Rain = 0
KSE1 271655Z 17014G20KT 28/19 A2985 RMK A01 T02780190  RH  062%=      5-min Rain = 0
KSE1 271700Z 18013G18KT 28/19 A2985 RMK A01 T02760187  RH  061%=      5-min Rain = 0
KSE1 271705Z 17013KT 27/19 A2985 RMK A01 T02740188  RH  063%=      5-min Rain = 0
KSE1 271710Z 18014KT 28/19 A2984 RMK A01 T02750188  RH  062%=      5-min Rain = 0
KSE1 271715Z 17014G19KT 28/19 A2984 RMK A01 T02800189  RH  061%=      5-min Rain = 0
KSE1 271720Z 18013G18KT 28/19 A2984 RMK A01 T02820188  RH  060%=      5-min Rain = 0
KSE1 271725Z 17012G19KT 28/19 A2984 RMK A01 T02810190  RH  061%=      5-min Rain = 0
KSE1 271730Z 18015G20KT 28/19 A2984 RMK A01 T02840189  RH  059%=      5-min Rain = 0
KSE1 271735Z 18014G22KT 29/19 A2984 RMK A01 T02860188  RH  058%=      5-min Rain = 0
KSE1 271740Z 18014KT 28/19 A2984 RMK A01 T02830186  RH  059%=      5-min Rain = 0
KSE1 271745Z 19013KT 28/19 A2983 RMK A01 T02840188  RH  059%=      5-min Rain = 0
KSE1 271750Z 18014G19KT 29/19 A2983 RMK A01 T02870188  RH  058%=      5-min Rain = 0
KSE1 271755Z 19014KT 29/19 A2983 RMK A01 T02890190  RH  058%=      5-min Rain = 0
KSE1 271800Z 18014G19KT 29/19 A2983 RMK A01 T02920191  RH  057%=      5-min Rain = 0
KSE1 271805Z 18012G22KT 29/19 A2983 RMK A01 T02880190  RH  059%=      5-min Rain = 0
KSE1 271810Z 17012KT 29/19 A2983 RMK A01 T02920194  RH  059%=      5-min Rain = 0
KSE1 271815Z 17012G19KT 29/19 A2983 RMK A01 T02930193  RH  058%=      5-min Rain = 0
KSE1 271820Z 16012G17KT 29/20 A2983 RMK A01 T02930195  RH  059%=      5-min Rain = 0
KSE1 271825Z 16012G17KT 29/19 A2983 RMK A01 T02890192  RH  059%=      5-min Rain = 0
KSE1 271830Z 16013KT 29/19 A2982 RMK A01 T02920194  RH  059%=      5-min Rain = 0
KSE1 271835Z 16010KT 29/20 A2982 RMK A01 T02920196  RH  060%=      5-min Rain = 0
KSE1 271840Z 17014G20KT 29/19 A2982 RMK A01 T02920193  RH  058%=      5-min Rain = 0
KSE1 271845Z 18014G19KT 30/20 A2982 RMK A01 T02950196  RH  058%=      5-min Rain = 0
KSE1 271850Z 17013G19KT 30/20 A2981 RMK A01 T02980196  RH  058%=      5-min Rain = 0
KSE1 271855Z 16013G19KT 30/20 A2981 RMK A01 T02980198  RH  058%=      5-min Rain = 0
KSE1 271900Z 16011G17KT 30/20 A2981 RMK A01 T02990199  RH  058%=      5-min Rain = 0
KSE1 271905Z 16013KT 30/20 A2981 RMK A01 T02980198  RH  058%=      5-min Rain = 0
KSE1 271910Z 16013G19KT 30/20 A298 RMK A01 T02990199  RH  058%=      5-min Rain = 0
KSE1 271915Z 16014G19KT 30/20 A298 RMK A01 T02980198  RH  059%=      5-min Rain = 0
KSE1 271920Z 17014G19KT 30/20 A298 RMK A01 T03010200  RH  058%=      5-min Rain = 0
KSE1 271925Z 16014KT 30/20 A298 RMK A01 T03010199  RH  057%=      5-min Rain = 0
KSE1 271930Z 17012G19KT 30/20 A2979 RMK A01 T03010199  RH  058%=      5-min Rain = 0
KSE1 271935Z 15015G20KT 30/20 A2979 RMK A01 T02980198  RH  058%=      5-min Rain = 0
KSE1 271940Z 15014G19KT 30/20 A2979 RMK A01 T03000199  RH  058%=      5-min Rain = 0
KSE1 271945Z 16012G17KT 30/20 A2979 RMK A01 T03040204  RH  058%=      5-min Rain = 0
KSE1 271950Z 16013G18KT 31/20 A2979 RMK A01 T03050201  RH  057%=      5-min Rain = 0
KSE1 271955Z 15014KT 30/20 A2978 RMK A01 T03040202  RH  058%=      5-min Rain = 0
KSE1 272000Z 16016G21KT 31/20 A2978 RMK A01 T03050202  RH  057%=      5-min Rain = 0
KSE1 272005Z 16015KT 30/20 A2978 RMK A01 T03040199  RH  057%=      5-min Rain = 0
KSE1 272010Z 15014KT 31/20 A2977 RMK A01 T03060204  RH  058%=      5-min Rain = 0
KSE1 272015Z 17015G23KT 31/20 A2977 RMK A01 T03060202  RH  057%=      5-min Rain = 0
KSE1 272020Z 15013G18KT 31/20 A2977 RMK A01 T03070203  RH  057%=      5-min Rain = 0
KSE1 272025Z 17016G21KT 31/20 A2977 RMK A01 T03070201  RH  057%=      5-min Rain = 0
KSE1 272030Z 17015G21KT 31/20 A2976 RMK A01 T03080203  RH  057%=      5-min Rain = 0
KSE1 272035Z 16014G20KT 31/20 A2976 RMK A01 T03070204  RH  057%=      5-min Rain = 0
KSE1 272040Z 16016G21KT 31/20 A2976 RMK A01 T03080202  RH  057%=      5-min Rain = 0
KSE1 272045Z 17015KT 31/20 A2976 RMK A01 T03070204  RH  057%=      5-min Rain = 0
KSE1 272050Z 17013G21KT 31/20 A2976 RMK A01 T03080201  RH  056%=      5-min Rain = 0
KSE1 272055Z 16015G20KT 31/20 A2975 RMK A01 T03080203  RH  057%=      5-min Rain = 0
KSE1 272100Z 18014G20KT 31/21 A2975 RMK A01 T03120205  RH  056%=      5-min Rain = 0
KSE1 272105Z 16014G20KT 31/21 A2975 RMK A01 T03120205  RH  056%=      5-min Rain = 0
KSE1 272110Z 16013KT 31/21 A2975 RMK A01 T03110205  RH  056%=      5-min Rain = 0
KSE1 272115Z 16016G22KT 31/20 A2975 RMK A01 T03120204  RH  056%=      5-min Rain = 0
KSE1 272120Z 17014G21KT 31/20 A2975 RMK A01 T03100202  RH  056%=      5-min Rain = 0
KSE1 272125Z 16014G20KT 31/21 A2974 RMK A01 T03120205  RH  056%=      5-min Rain = 0
KSE1 272130Z 15015G21KT 31/21 A2974 RMK A01 T03120205  RH  056%=      5-min Rain = 0
KSE1 272135Z 15016G22KT 31/20 A2974 RMK A01 T03090203  RH  057%=      5-min Rain = 0
KSE1 272140Z 17013G20KT 31/21 A2974 RMK A01 T03110206  RH  057%=      5-min Rain = 0
KSE1 272145Z 16015G20KT 31/20 A2973 RMK A01 T03090204  RH  057%=      5-min Rain = 0
KSE1 272150Z 15016G21KT 31/20 A2973 RMK A01 T03090202  RH  056%=      5-min Rain = 0
KSE1 272155Z 16015G21KT 30/20 A2972 RMK A01 T03030202  RH  058%=      5-min Rain = 0
KSE1 272200Z 16015G20KT 31/20 A2972 RMK A01 T03080204  RH  057%=      5-min Rain = 0
KSE1 272205Z 15016G21KT 31/20 A2972 RMK A01 T03080202  RH  056%=      5-min Rain = 0
KSE1 272210Z 15016G22KT 31/20 A2972 RMK A01 T03070199  RH  056%=      5-min Rain = 0
KSE1 272215Z 15017G24KT 31/20 A2972 RMK A01 T03050199  RH  056%=      5-min Rain = 0
KSE1 272220Z 15016G22KT 31/20 A2972 RMK A01 T03060199  RH  056%=      5-min Rain = 0
KSE1 272225Z 15013G19KT 31/20 A2972 RMK A01 T03080201  RH  056%=      5-min Rain = 0
KSE1 272230Z 16016G22KT 31/20 A2971 RMK A01 T03100201  RH  055%=      5-min Rain = 0
KSE1 272235Z 16016G23KT 30/20 A2971 RMK A01 T03030201  RH  058%=      5-min Rain = 0
KSE1 272240Z 15017G23KT 30/20 A2971 RMK A01 T03040203  RH  058%=      5-min Rain = 0
KSE1 272245Z 15015G20KT 31/20 A2971 RMK A01 T03060203  RH  057%=      5-min Rain = 0
KSE1 272250Z 15016G23KT 30/20 A2971 RMK A01 T03040202  RH  058%=      5-min Rain = 0
KSE1 272255Z 15015G20KT 30/20 A2971 RMK A01 T03020201  RH  058%=      5-min Rain = 0
KSE1 272300Z 15013G20KT 30/20 A2971 RMK A01 T03020204  RH  059%=      5-min Rain = 0
KSE1 272305Z 16014G22KT 31/20 A2971 RMK A01 T03050203  RH  058%=      5-min Rain = 0
KSE1 272310Z 16016G21KT 30/20 A2971 RMK A01 T03020200  RH  058%=      5-min Rain = 0
KSE1 272315Z 16015G21KT 30/20 A297 RMK A01 T03040201  RH  057%=      5-min Rain = 0
KSE1 272320Z 16014G20KT 30/20 A297 RMK A01 T03030198  RH  057%=      5-min Rain = 0
KSE1 272325Z 15015G20KT 30/20 A297 RMK A01 T03020200  RH  058%=      5-min Rain = 0
KSE1 272330Z 15015G21KT 30/20 A297 RMK A01 T03030200  RH  057%=      5-min Rain = 0
KSE1 272335Z 15014G19KT 30/20 A297 RMK A01 T03030201  RH  058%=      5-min Rain = 0
KSE1 272340Z 15017G23KT 30/20 A297 RMK A01 T03020199  RH  057%=      5-min Rain = 0
KSE1 272345Z 15015KT 30/20 A297 RMK A01 T03010199  RH  057%=      5-min Rain = 0
KSE1 272350Z 15013G19KT 30/20 A297 RMK A01 T03010200  RH  058%=      5-min Rain = 0
KSE1 272355Z 15015G20KT 30/20 A2969 RMK A01 T03000199  RH  058%=      5-min Rain = 0
KSE1 280000Z 15016KT 30/20 A2969 RMK A01 T02990198  RH  058%=      5-min Rain = 0
KSE1 280005Z 15016G21KT 30/20 A2969 RMK A01 T02980196  RH  058%=      5-min Rain = 0
KSE1 280010Z 15012KT 30/20 A2969 RMK A01 T02980199  RH  059%=      5-min Rain = 0
KSE1 280015Z 15014G19KT 30/20 A2969 RMK A01 T02970197  RH  058%=      5-min Rain = 0
KSE1 280020Z 15013G20KT 30/20 A2969 RMK A01 T02960196  RH  058%=      5-min Rain = 0
KSE1 280025Z 15015G21KT 30/19 A2969 RMK A01 T02950194  RH  058%=      5-min Rain = 0
KSE1 280030Z 15014KT 29/19 A2969 RMK A01 T02940193  RH  058%=      5-min Rain = 0
KSE1 280035Z 15014G19KT 29/19 A2969 RMK A01 T02930193  RH  058%=      5-min Rain = 0
KSE1 280040Z 16014KT 29/19 A2969 RMK A01 T02910193  RH  058%=      5-min Rain = 0
KSE1 280045Z 15012KT 29/19 A2969 RMK A01 T02900194  RH  059%=      5-min Rain = 0
KSE1 280050Z 15012G20KT 29/20 A2969 RMK A01 T02880195  RH  060%=      5-min Rain = 0
KSE1 280055Z 15013G18KT 29/19 A2969 RMK A01 T02860194  RH  061%=      5-min Rain = 0
KSE1 280100Z 15012KT 29/19 A2969 RMK A01 T02850194  RH  061%=      5-min Rain = 0
KSE1 280105Z 15012G18KT 28/19 A2969 RMK A01 T02830193  RH  061%=      5-min Rain = 0
KSE1 280110Z 15013G18KT 28/19 A2969 RMK A01 T02830191  RH  061%=      5-min Rain = 0
KSE1 280115Z 14012KT 28/19 A2969 RMK A01 T02810191  RH  062%=      5-min Rain = 0
KSE1 280120Z 14011KT 28/19 A2969 RMK A01 T02780192  RH  063%=      5-min Rain = 0
KSE1 280125Z 14011KT 28/19 A2969 RMK A01 T02770191  RH  063%=      5-min Rain = 0
KSE1 280130Z 15011KT 28/19 A2969 RMK A01 T02760190  RH  063%=      5-min Rain = 0
KSE1 280135Z 14011KT 28/19 A2969 RMK A01 T02750190  RH  063%=      5-min Rain = 0
KSE1 280140Z 14011KT 27/19 A2969 RMK A01 T02730190  RH  064%=      5-min Rain = 0
KSE1 280145Z 14010G16KT 27/19 A297 RMK A01 T02710190  RH  065%=      5-min Rain = 0
KSE1 280150Z 14010KT 27/19 A297 RMK A01 T02700190  RH  065%=      5-min Rain = 0
KSE1 280155Z 14009KT 27/19 A297 RMK A01 T02670190  RH  066%=      5-min Rain = 0
KSE1 280200Z 14009G14KT 27/19 A297 RMK A01 T02660190  RH  067%=      5-min Rain = 0
KSE1 280205Z 14010G18KT 27/19 A2969 RMK A01 T02660190  RH  067%=      5-min Rain = 0
KSE1 280210Z 14011G18KT 27/19 A2969 RMK A01 T02650189  RH  067%=      5-min Rain = 0
KSE1 280215Z 14011G17KT 27/19 A2969 RMK A01 T02660189  RH  066%=      5-min Rain = 0
KSE1 280220Z 14011KT 26/19 A2969 RMK A01 T02640189  RH  067%=      5-min Rain = 0
KSE1 280225Z 14011G16KT 26/19 A2969 RMK A01 T02620189  RH  068%=      5-min Rain = 0
KSE1 280230Z 14013KT 26/19 A2969 RMK A01 T02620189  RH  068%=      5-min Rain = 0
KSE1 280235Z 14012G17KT 26/19 A2969 RMK A01 T02610189  RH  068%=      5-min Rain = 0
KSE1 280240Z 14013G19KT 26/19 A2969 RMK A01 T02630189  RH  067%=      5-min Rain = 0
KSE1 280245Z 14015G21KT 26/19 A2969 RMK A01 T02640188  RH  066%=      5-min Rain = 0
KSE1 280250Z 14014KT 26/19 A2969 RMK A01 T02630187  RH  066%=      5-min Rain = 0
KSE1 280255Z 14013KT 26/19 A2969 RMK A01 T02630187  RH  067%=      5-min Rain = 0
KSE1 280300Z 14013G19KT 26/19 A2969 RMK A01 T02620187  RH  067%=      5-min Rain = 0
KSE1 280305Z 14014G20KT 26/19 A2969 RMK A01 T02610186  RH  067%=      5-min Rain = 0
KSE1 280310Z 14017G23KT 26/19 A2969 RMK A01 T02620185  RH  066%=      5-min Rain = 0
KSE1 280315Z 15015G21KT 26/19 A2969 RMK A01 T02620185  RH  066%=      5-min Rain = 0
KSE1 280320Z 15016G23KT 26/18 A2969 RMK A01 T02610184  RH  066%=      5-min Rain = 0
KSE1 280325Z 15015G21KT 26/18 A2969 RMK A01 T02600184  RH  067%=      5-min Rain = 0
KSE1 280330Z 14015G23KT 26/18 A2969 RMK A01 T02600184  RH  067%=      5-min Rain = 0
KSE1 280335Z 14015G20KT 26/18 A2969 RMK A01 T02590184  RH  067%=      5-min Rain = 0
KSE1 280340Z 14014G20KT 26/18 A2969 RMK A01 T02580184  RH  067%=      5-min Rain = 0
KSE1 280345Z 14015G20KT 26/18 A2969 RMK A01 T02570184  RH  068%=      5-min Rain = 0
KSE1 280350Z 14016KT 26/18 A2969 RMK A01 T02570184  RH  068%=      5-min Rain = 0
KSE1 280355Z 14016G23KT 26/18 A2969 RMK A01 T02570184  RH  068%=      5-min Rain = 0
KSE1 280400Z 15015KT 26/18 A2969 RMK A01 T02560184  RH  068%=      5-min Rain = 0
KSE1 280405Z 15015KT 26/18 A2969 RMK A01 T02550184  RH  068%=      5-min Rain = 0
KSE1 280410Z 15014G19KT 25/18 A2969 RMK A01 T02540184  RH  069%=      5-min Rain = 0
KSE1 280415Z 15015G22KT 25/18 A2969 RMK A01 T02540184  RH  069%=      5-min Rain = 0
KSE1 280420Z 15017G24KT 25/18 A2969 RMK A01 T02540184  RH  069%=      5-min Rain = 0
KSE1 280425Z 15016G23KT 25/18 A2969 RMK A01 T02530184  RH  069%=      5-min Rain = 0
KSE1 280430Z 15016KT 25/18 A2969 RMK A01 T02530184  RH  069%=      5-min Rain = 0
KSE1 280435Z 15016G21KT 25/18 A2969 RMK A01 T02530184  RH  069%=      5-min Rain = 0
KSE1 280440Z 15014KT 25/18 A2969 RMK A01 T02520184  RH  070%=      5-min Rain = 0
KSE1 280445Z 15016G23KT 25/18 A2969 RMK A01 T02510184  RH  070%=      5-min Rain = 0
KSE1 280450Z 16015G22KT 25/18 A297 RMK A01 T02510184  RH  070%=      5-min Rain = 0
KSE1 280455Z 16013G19KT 25/18 A297 RMK A01 T02500183  RH  070%=      5-min Rain = 0

Page generated in 0.0092 seconds.